sensor_id;sensor_type;location;lat;lon;timestamp;pressure;altitude;pressure_sealevel;temperature;humidity
15444;BME280;7822;48.146;11.576;2022-12-07T00:01:04;95352.38;;;5.76;72.49
15444;BME280;7822;48.146;11.576;2022-12-07T00:03:34;95357.44;;;5.64;72.50
15444;BME280;7822;48.146;11.576;2022-12-07T00:06:03;95358.88;;;5.54;73.01
15444;BME280;7822;48.146;11.576;2022-12-07T00:08:32;95357.44;;;5.64;72.81
15444;BME280;7822;48.146;11.576;2022-12-07T00:11:01;95351.91;;;5.56;73.15
15444;BME280;7822;48.146;11.576;2022-12-07T00:13:36;95349.06;;;5.46;73.67
15444;BME280;7822;48.146;11.576;2022-12-07T00:16:22;95354.75;;;5.51;73.42
15444;BME280;7822;48.146;11.576;2022-12-07T00:18:55;95356.50;;;5.51;73.31
15444;BME280;7822;48.146;11.576;2022-12-07T00:21:25;95348.03;;;5.49;73.34
15444;BME280;7822;48.146;11.576;2022-12-07T00:23:55;95349.69;;;5.50;73.69
15444;BME280;7822;48.146;11.576;2022-12-07T00:26:25;95343.91;;;5.46;73.49
15444;BME280;7822;48.146;11.576;2022-12-07T00:28:54;95344.91;;;5.58;72.74
15444;BME280;7822;48.146;11.576;2022-12-07T00:31:25;95345.31;;;5.66;72.27
15444;BME280;7822;48.146;11.576;2022-12-07T00:33:54;95346.84;;;5.54;72.75
15444;BME280;7822;48.146;11.576;2022-12-07T00:36:23;95337.94;;;5.46;72.89
15444;BME280;7822;48.146;11.576;2022-12-07T00:38:53;95341.13;;;5.49;73.10
15444;BME280;7822;48.146;11.576;2022-12-07T00:41:22;95344.97;;;5.42;72.90
15444;BME280;7822;48.146;11.576;2022-12-07T00:43:51;95343.06;;;5.46;73.21
15444;BME280;7822;48.146;11.576;2022-12-07T00:46:20;95337.09;;;5.45;73.22
15444;BME280;7822;48.146;11.576;2022-12-07T00:48:49;95337.38;;;5.41;73.40
15444;BME280;7822;48.146;11.576;2022-12-07T00:51:20;95344.31;;;5.68;72.18
15444;BME280;7822;48.146;11.576;2022-12-07T00:53:48;95348.41;;;5.71;71.93
15444;BME280;7822;48.146;11.576;2022-12-07T00:56:17;95344.50;;;5.93;71.34
15444;BME280;7822;48.146;11.576;2022-12-07T00:58:49;95343.41;;;5.97;71.03
15444;BME280;7822;48.146;11.576;2022-12-07T01:01:17;95344.22;;;5.70;71.47
15444;BME280;7822;48.146;11.576;2022-12-07T01:03:45;95338.97;;;5.57;71.75
15444;BME280;7822;48.146;11.576;2022-12-07T01:06:14;95340.03;;;5.39;72.47
15444;BME280;7822;48.146;11.576;2022-12-07T01:08:59;95339.47;;;5.34;73.01
15444;BME280;7822;48.146;11.576;2022-12-07T01:11:29;95334.00;;;5.54;72.77
15444;BME280;7822;48.146;11.576;2022-12-07T01:13:58;95334.16;;;5.51;72.34
15444;BME280;7822;48.146;11.576;2022-12-07T01:16:29;95338.59;;;5.63;72.04
15444;BME280;7822;48.146;11.576;2022-12-07T01:19:30;95344.38;;;5.67;71.70
15444;BME280;7822;48.146;11.576;2022-12-07T01:21:57;95345.03;;;5.70;70.33
15444;BME280;7822;48.146;11.576;2022-12-07T01:24:26;95339.22;;;5.53;71.20
15444;BME280;7822;48.146;11.576;2022-12-07T01:26:54;95340.53;;;5.74;71.11
15444;BME280;7822;48.146;11.576;2022-12-07T01:29:22;95336.41;;;5.57;70.94
15444;BME280;7822;48.146;11.576;2022-12-07T01:31:49;95346.69;;;5.57;71.28
15444;BME280;7822;48.146;11.576;2022-12-07T01:34:17;95344.97;;;5.42;71.87
15444;BME280;7822;48.146;11.576;2022-12-07T01:36:45;95347.00;;;5.37;72.07
15444;BME280;7822;48.146;11.576;2022-12-07T01:39:12;95347.03;;;5.79;71.10
15444;BME280;7822;48.146;11.576;2022-12-07T01:41:41;95338.53;;;5.79;70.73
15444;BME280;7822;48.146;11.576;2022-12-07T01:44:19;95340.44;;;5.75;70.94
15444;BME280;7822;48.146;11.576;2022-12-07T01:46:49;95334.38;;;5.76;70.69
15444;BME280;7822;48.146;11.576;2022-12-07T01:49:22;95334.34;;;5.62;70.94
15444;BME280;7822;48.146;11.576;2022-12-07T01:51:52;95333.22;;;5.38;71.92
15444;BME280;7822;48.146;11.576;2022-12-07T01:54:24;95331.41;;;5.54;71.67
15444;BME280;7822;48.146;11.576;2022-12-07T01:56:54;95334.53;;;5.45;71.98
15444;BME280;7822;48.146;11.576;2022-12-07T01:59:24;95326.34;;;5.39;72.06
15444;BME280;7822;48.146;11.576;2022-12-07T02:01:54;95326.16;;;5.42;72.73
15444;BME280;7822;48.146;11.576;2022-12-07T02:04:23;95330.28;;;5.44;72.09
15444;BME280;7822;48.146;11.576;2022-12-07T02:06:51;95336.94;;;5.48;72.36
15444;BME280;7822;48.146;11.576;2022-12-07T02:09:19;95337.41;;;5.55;72.14
15444;BME280;7822;48.146;11.576;2022-12-07T02:11:47;95330.88;;;5.77;71.30
15444;BME280;7822;48.146;11.576;2022-12-07T02:14:16;95332.25;;;5.83;71.09
15444;BME280;7822;48.146;11.576;2022-12-07T02:16:59;95326.28;;;5.68;70.88
15444;BME280;7822;48.146;11.576;2022-12-07T02:19:59;95326.53;;;5.50;71.71
15444;BME280;7822;48.146;11.576;2022-12-07T02:22:49;95324.34;;;5.58;71.68
15444;BME280;7822;48.146;11.576;2022-12-07T02:25:23;95326.84;;;5.59;71.48
15444;BME280;7822;48.146;11.576;2022-12-07T02:28:02;95321.75;;;5.58;71.94
15444;BME280;7822;48.146;11.576;2022-12-07T02:30:36;95316.31;;;5.34;72.30
15444;BME280;7822;48.146;11.576;2022-12-07T02:33:11;95316.94;;;5.38;72.58
15444;BME280;7822;48.146;11.576;2022-12-07T02:35:46;95315.59;;;5.32;73.07
15444;BME280;7822;48.146;11.576;2022-12-07T02:38:18;95313.47;;;5.39;73.02
15444;BME280;7822;48.146;11.576;2022-12-07T02:40:50;95327.47;;;5.63;72.08
15444;BME280;7822;48.146;11.576;2022-12-07T02:43:23;95316.88;;;5.53;71.94
15444;BME280;7822;48.146;11.576;2022-12-07T02:45:57;95313.56;;;5.51;71.87
15444;BME280;7822;48.146;11.576;2022-12-07T02:48:27;95315.16;;;5.54;72.18
15444;BME280;7822;48.146;11.576;2022-12-07T02:50:55;95310.00;;;5.40;72.63
15444;BME280;7822;48.146;11.576;2022-12-07T02:53:31;95311.91;;;5.22;73.15
15444;BME280;7822;48.146;11.576;2022-12-07T02:56:02;95307.03;;;5.17;73.13
15444;BME280;7822;48.146;11.576;2022-12-07T02:58:42;95304.34;;;5.19;73.38
15444;BME280;7822;48.146;11.576;2022-12-07T03:01:23;95308.94;;;5.14;73.79
15444;BME280;7822;48.146;11.576;2022-12-07T03:04:05;95313.91;;;5.31;73.21
15444;BME280;7822;48.146;11.576;2022-12-07T03:06:41;95307.56;;;5.22;73.46
15444;BME280;7822;48.146;11.576;2022-12-07T03:09:15;95309.50;;;5.19;73.77
15444;BME280;7822;48.146;11.576;2022-12-07T03:11:48;95309.34;;;5.22;73.52
15444;BME280;7822;48.146;11.576;2022-12-07T03:14:22;95312.63;;;5.24;73.47
15444;BME280;7822;48.146;11.576;2022-12-07T03:16:57;95305.09;;;5.21;73.25
15444;BME280;7822;48.146;11.576;2022-12-07T03:19:27;95311.91;;;5.22;73.39
15444;BME280;7822;48.146;11.576;2022-12-07T03:21:57;95310.59;;;5.29;72.88
15444;BME280;7822;48.146;11.576;2022-12-07T03:24:34;95314.84;;;5.30;72.61
15444;BME280;7822;48.146;11.576;2022-12-07T03:27:06;95320.25;;;5.25;72.79
15444;BME280;7822;48.146;11.576;2022-12-07T03:29:40;95314.19;;;5.26;72.99
15444;BME280;7822;48.146;11.576;2022-12-07T03:32:15;95321.00;;;5.28;72.88
15444;BME280;7822;48.146;11.576;2022-12-07T03:34:51;95304.72;;;5.27;73.18
15444;BME280;7822;48.146;11.576;2022-12-07T03:37:26;95310.94;;;5.67;71.06
15444;BME280;7822;48.146;11.576;2022-12-07T03:40:02;95308.81;;;5.45;71.67
15444;BME280;7822;48.146;11.576;2022-12-07T03:42:32;95301.53;;;5.38;72.03
15444;BME280;7822;48.146;11.576;2022-12-07T03:45:01;95303.16;;;5.24;72.57
15444;BME280;7822;48.146;11.576;2022-12-07T03:47:33;95309.44;;;5.35;72.40
15444;BME280;7822;48.146;11.576;2022-12-07T03:50:06;95296.84;;;5.44;72.02
15444;BME280;7822;48.146;11.576;2022-12-07T03:52:39;95307.44;;;5.54;71.61
15444;BME280;7822;48.146;11.576;2022-12-07T03:55:11;95303.31;;;5.65;71.29
15444;BME280;7822;48.146;11.576;2022-12-07T03:57:41;95299.72;;;5.54;71.41
15444;BME280;7822;48.146;11.576;2022-12-07T04:00:11;95291.69;;;5.44;71.75
15444;BME280;7822;48.146;11.576;2022-12-07T04:02:41;95294.63;;;5.38;72.06
15444;BME280;7822;48.146;11.576;2022-12-07T04:05:11;95291.69;;;5.44;72.13
15444;BME280;7822;48.146;11.576;2022-12-07T04:07:38;95289.88;;;5.60;72.11
15444;BME280;7822;48.146;11.576;2022-12-07T04:10:08;95287.50;;;5.57;71.79
15444;BME280;7822;48.146;11.576;2022-12-07T04:12:36;95289.72;;;5.63;71.36
15444;BME280;7822;48.146;11.576;2022-12-07T04:15:05;95291.06;;;5.41;71.78
15444;BME280;7822;48.146;11.576;2022-12-07T04:17:33;95293.84;;;5.66;71.57
15444;BME280;7822;48.146;11.576;2022-12-07T04:20:02;95297.34;;;5.51;71.65
15444;BME280;7822;48.146;11.576;2022-12-07T04:22:30;95301.09;;;5.59;71.73
15444;BME280;7822;48.146;11.576;2022-12-07T04:24:58;95296.22;;;5.41;71.99
15444;BME280;7822;48.146;11.576;2022-12-07T04:27:25;95294.00;;;5.35;72.53
15444;BME280;7822;48.146;11.576;2022-12-07T04:29:53;95290.69;;;5.33;72.58
15444;BME280;7822;48.146;11.576;2022-12-07T04:32:21;95299.97;;;5.35;72.58
15444;BME280;7822;48.146;11.576;2022-12-07T04:34:49;95293.53;;;5.28;72.93
15444;BME280;7822;48.146;11.576;2022-12-07T04:37:23;95295.38;;;5.26;73.00
15444;BME280;7822;48.146;11.576;2022-12-07T04:39:50;95302.69;;;5.18;73.79
15444;BME280;7822;48.146;11.576;2022-12-07T04:42:18;95299.13;;;5.20;73.82
15444;BME280;7822;48.146;11.576;2022-12-07T04:44:45;95295.34;;;5.12;74.58
15444;BME280;7822;48.146;11.576;2022-12-07T04:47:13;95301.94;;;5.02;74.75
15444;BME280;7822;48.146;11.576;2022-12-07T04:49:41;95289.34;;;4.97;74.95
15444;BME280;7822;48.146;11.576;2022-12-07T04:52:09;95294.28;;;5.30;74.33
15444;BME280;7822;48.146;11.576;2022-12-07T04:54:38;95292.28;;;5.35;73.89
15444;BME280;7822;48.146;11.576;2022-12-07T04:57:05;95292.88;;;5.24;73.88
15444;BME280;7822;48.146;11.576;2022-12-07T04:59:33;95295.53;;;5.23;74.67
15444;BME280;7822;48.146;11.576;2022-12-07T05:02:04;95292.59;;;5.29;74.36
15444;BME280;7822;48.146;11.576;2022-12-07T05:04:31;95296.13;;;5.56;74.04
15444;BME280;7822;48.146;11.576;2022-12-07T05:06:59;95301.56;;;5.66;73.27
15444;BME280;7822;48.146;11.576;2022-12-07T05:09:27;95289.34;;;5.69;73.31
15444;BME280;7822;48.146;11.576;2022-12-07T05:11:56;95293.00;;;5.65;72.95
15444;BME280;7822;48.146;11.576;2022-12-07T05:14:23;95303.28;;;5.37;73.38
15444;BME280;7822;48.146;11.576;2022-12-07T05:16:51;95300.78;;;5.21;73.91
15444;BME280;7822;48.146;11.576;2022-12-07T05:19:20;95304.44;;;5.17;74.60
15444;BME280;7822;48.146;11.576;2022-12-07T05:21:48;95296.44;;;5.08;74.80
15444;BME280;7822;48.146;11.576;2022-12-07T05:24:16;95294.06;;;5.19;74.63
15444;BME280;7822;48.146;11.576;2022-12-07T05:26:44;95301.22;;;5.14;74.46
15444;BME280;7822;48.146;11.576;2022-12-07T05:29:15;95299.84;;;5.08;75.05
15444;BME280;7822;48.146;11.576;2022-12-07T05:31:44;95295.00;;;5.32;74.26
15444;BME280;7822;48.146;11.576;2022-12-07T05:34:12;95297.16;;;5.40;74.02
15444;BME280;7822;48.146;11.576;2022-12-07T05:36:40;95292.59;;;5.29;74.02
15444;BME280;7822;48.146;11.576;2022-12-07T05:39:08;95297.41;;;5.35;73.83
15444;BME280;7822;48.146;11.576;2022-12-07T05:41:36;95304.81;;;5.25;73.86
15444;BME280;7822;48.146;11.576;2022-12-07T05:44:22;95294.38;;;5.43;73.46
15444;BME280;7822;48.146;11.576;2022-12-07T05:46:50;95300.34;;;5.43;73.38
15444;BME280;7822;48.146;11.576;2022-12-07T05:49:17;95295.66;;;5.36;73.13
15444;BME280;7822;48.146;11.576;2022-12-07T05:51:45;95296.38;;;5.23;73.46
15444;BME280;7822;48.146;11.576;2022-12-07T05:54:13;95295.81;;;5.18;74.14
15444;BME280;7822;48.146;11.576;2022-12-07T05:56:40;95295.28;;;5.28;73.68
15444;BME280;7822;48.146;11.576;2022-12-07T05:59:08;95298.47;;;5.31;73.54
15444;BME280;7822;48.146;11.576;2022-12-07T06:01:56;95304.47;;;5.32;72.90
15444;BME280;7822;48.146;11.576;2022-12-07T06:04:25;95297.75;;;5.29;73.52
15444;BME280;7822;48.146;11.576;2022-12-07T06:06:53;95301.53;;;5.23;73.03
15444;BME280;7822;48.146;11.576;2022-12-07T06:09:22;95301.47;;;5.39;73.23
15444;BME280;7822;48.146;11.576;2022-12-07T06:11:50;95306.13;;;5.47;72.43
15444;BME280;7822;48.146;11.576;2022-12-07T06:14:35;95306.13;;;5.33;72.65
15444;BME280;7822;48.146;11.576;2022-12-07T06:17:05;95302.09;;;5.43;72.79
15444;BME280;7822;48.146;11.576;2022-12-07T06:19:33;95301.38;;;5.55;72.35
15444;BME280;7822;48.146;11.576;2022-12-07T06:22:01;95312.44;;;5.27;72.28
15444;BME280;7822;48.146;11.576;2022-12-07T06:24:31;95304.88;;;5.10;73.18
15444;BME280;7822;48.146;11.576;2022-12-07T06:26:59;95316.22;;;4.92;73.61
15444;BME280;7822;48.146;11.576;2022-12-07T06:29:26;95321.81;;;4.98;74.11
15444;BME280;7822;48.146;11.576;2022-12-07T06:31:54;95317.56;;;5.13;72.94
15444;BME280;7822;48.146;11.576;2022-12-07T06:34:24;95324.81;;;5.20;73.06
15444;BME280;7822;48.146;11.576;2022-12-07T06:36:53;95321.50;;;5.18;72.65
15444;BME280;7822;48.146;11.576;2022-12-07T06:39:23;95324.72;;;5.08;73.37
15444;BME280;7822;48.146;11.576;2022-12-07T06:41:51;95320.41;;;5.08;73.37
15444;BME280;7822;48.146;11.576;2022-12-07T06:44:21;95322.41;;;5.03;73.23
15444;BME280;7822;48.146;11.576;2022-12-07T06:46:50;95318.63;;;5.09;73.51
15444;BME280;7822;48.146;11.576;2022-12-07T06:49:39;95318.13;;;5.18;73.18
15444;BME280;7822;48.146;11.576;2022-12-07T06:52:07;95318.78;;;5.21;72.77
15444;BME280;7822;48.146;11.576;2022-12-07T06:54:34;95321.25;;;5.23;72.08
15444;BME280;7822;48.146;11.576;2022-12-07T06:57:02;95330.22;;;5.16;71.45
15444;BME280;7822;48.146;11.576;2022-12-07T06:59:30;95328.28;;;5.05;71.68
15444;BME280;7822;48.146;11.576;2022-12-07T07:01:58;95330.22;;;5.02;72.10
15444;BME280;7822;48.146;11.576;2022-12-07T07:04:25;95329.94;;;5.06;72.71
15444;BME280;7822;48.146;11.576;2022-12-07T07:06:54;95331.44;;;5.10;72.11
15444;BME280;7822;48.146;11.576;2022-12-07T07:09:25;95330.50;;;5.11;72.47
15444;BME280;7822;48.146;11.576;2022-12-07T07:11:53;95330.00;;;5.05;72.47
15444;BME280;7822;48.146;11.576;2022-12-07T07:14:21;95326.59;;;4.90;72.71
15444;BME280;7822;48.146;11.576;2022-12-07T07:16:48;95333.06;;;5.11;72.69
15444;BME280;7822;48.146;11.576;2022-12-07T07:19:16;95331.91;;;5.31;72.53
15444;BME280;7822;48.146;11.576;2022-12-07T07:21:44;95339.31;;;5.51;71.24
15444;BME280;7822;48.146;11.576;2022-12-07T07:24:13;95325.88;;;5.32;71.72
15444;BME280;7822;48.146;11.576;2022-12-07T07:26:40;95323.06;;;5.51;71.00
15444;BME280;7822;48.146;11.576;2022-12-07T07:29:08;95332.53;;;5.50;71.26
15444;BME280;7822;48.146;11.576;2022-12-07T07:31:36;95327.63;;;5.46;71.27
15444;BME280;7822;48.146;11.576;2022-12-07T07:34:04;95338.81;;;5.31;71.52
15444;BME280;7822;48.146;11.576;2022-12-07T07:36:32;95328.72;;;5.28;71.73
15444;BME280;7822;48.146;11.576;2022-12-07T07:39:00;95338.09;;;5.29;71.95
15444;BME280;7822;48.146;11.576;2022-12-07T07:41:29;95331.81;;;5.18;71.90
15444;BME280;7822;48.146;11.576;2022-12-07T07:43:56;95341.44;;;5.15;72.14
15444;BME280;7822;48.146;11.576;2022-12-07T07:46:24;95345.66;;;5.16;71.80
15444;BME280;7822;48.146;11.576;2022-12-07T07:48:52;95343.56;;;5.22;71.87
15444;BME280;7822;48.146;11.576;2022-12-07T07:51:19;95348.81;;;5.21;71.47
15444;BME280;7822;48.146;11.576;2022-12-07T07:53:47;95353.53;;;5.29;71.63
15444;BME280;7822;48.146;11.576;2022-12-07T07:56:14;95352.72;;;5.12;71.50
15444;BME280;7822;48.146;11.576;2022-12-07T07:58:43;95352.47;;;5.17;71.47
15444;BME280;7822;48.146;11.576;2022-12-07T08:01:11;95346.66;;;5.13;71.65
15444;BME280;7822;48.146;11.576;2022-12-07T08:03:40;95353.94;;;5.21;72.36
15444;BME280;7822;48.146;11.576;2022-12-07T08:06:07;95354.00;;;5.35;71.45
15444;BME280;7822;48.146;11.576;2022-12-07T08:08:35;95345.81;;;5.29;71.34
15444;BME280;7822;48.146;11.576;2022-12-07T08:11:05;95342.56;;;5.25;71.37
15444;BME280;7822;48.146;11.576;2022-12-07T08:13:32;95348.13;;;5.33;71.34
15444;BME280;7822;48.146;11.576;2022-12-07T08:16:05;95357.00;;;5.28;70.96
15444;BME280;7822;48.146;11.576;2022-12-07T08:18:35;95356.50;;;5.21;71.70
15444;BME280;7822;48.146;11.576;2022-12-07T08:21:03;95358.34;;;5.19;71.93
15444;BME280;7822;48.146;11.576;2022-12-07T08:23:31;95357.25;;;5.23;71.94
15444;BME280;7822;48.146;11.576;2022-12-07T08:26:07;95358.50;;;5.16;71.92
15444;BME280;7822;48.146;11.576;2022-12-07T08:28:35;95363.09;;;5.11;72.09
15444;BME280;7822;48.146;11.576;2022-12-07T08:31:06;95365.91;;;5.22;72.25
15444;BME280;7822;48.146;11.576;2022-12-07T08:33:35;95362.13;;;5.28;73.82
15444;BME280;7822;48.146;11.576;2022-12-07T08:36:05;95359.19;;;5.34;74.83
15444;BME280;7822;48.146;11.576;2022-12-07T08:38:34;95363.13;;;5.25;73.73
15444;BME280;7822;48.146;11.576;2022-12-07T08:41:02;95351.84;;;5.28;73.68
15444;BME280;7822;48.146;11.576;2022-12-07T08:43:30;95348.22;;;5.46;74.16
15444;BME280;7822;48.146;11.576;2022-12-07T08:46:06;95348.59;;;5.54;73.03
15444;BME280;7822;48.146;11.576;2022-12-07T08:48:36;95349.78;;;5.48;71.77
15444;BME280;7822;48.146;11.576;2022-12-07T08:51:05;95361.09;;;5.60;72.89
15444;BME280;7822;48.146;11.576;2022-12-07T08:53:33;95350.44;;;5.52;71.71
15444;BME280;7822;48.146;11.576;2022-12-07T08:56:03;95362.44;;;5.37;71.55
15444;BME280;7822;48.146;11.576;2022-12-07T08:58:32;95362.19;;;5.56;71.97
15444;BME280;7822;48.146;11.576;2022-12-07T09:01:00;95359.53;;;5.71;72.14
15444;BME280;7822;48.146;11.576;2022-12-07T09:03:29;95363.13;;;5.69;71.17
15444;BME280;7822;48.146;11.576;2022-12-07T09:05:57;95357.41;;;5.50;69.84
15444;BME280;7822;48.146;11.576;2022-12-07T09:08:29;95359.34;;;5.46;69.96
15444;BME280;7822;48.146;11.576;2022-12-07T09:10:59;95365.97;;;5.50;69.05
15444;BME280;7822;48.146;11.576;2022-12-07T09:13:26;95364.50;;;5.46;68.91
15444;BME280;7822;48.146;11.576;2022-12-07T09:15:54;95359.50;;;5.43;69.92
15444;BME280;7822;48.146;11.576;2022-12-07T09:18:22;95345.44;;;5.49;70.29
15444;BME280;7822;48.146;11.576;2022-12-07T09:20:51;95351.25;;;5.66;69.47
15444;BME280;7822;48.146;11.576;2022-12-07T09:23:19;95357.63;;;5.75;68.78
15444;BME280;7822;48.146;11.576;2022-12-07T09:25:47;95352.38;;;5.76;68.81
15444;BME280;7822;48.146;11.576;2022-12-07T09:28:15;95359.66;;;5.70;68.45
15444;BME280;7822;48.146;11.576;2022-12-07T09:30:45;95357.06;;;5.70;68.61
15444;BME280;7822;48.146;11.576;2022-12-07T09:33:34;95360.13;;;5.76;67.91
15444;BME280;7822;48.146;11.576;2022-12-07T09:36:03;95355.03;;;5.61;67.58
15444;BME280;7822;48.146;11.576;2022-12-07T09:38:31;95353.31;;;5.61;68.38
15444;BME280;7822;48.146;11.576;2022-12-07T09:41:04;95354.75;;;5.51;69.18
15444;BME280;7822;48.146;11.576;2022-12-07T09:43:33;95356.13;;;5.71;67.99
15444;BME280;7822;48.146;11.576;2022-12-07T09:46:03;95350.78;;;5.60;68.79
15444;BME280;7822;48.146;11.576;2022-12-07T09:48:32;95351.09;;;5.69;68.36
15444;BME280;7822;48.146;11.576;2022-12-07T09:51:14;95351.94;;;5.70;67.92
15444;BME280;7822;48.146;11.576;2022-12-07T09:53:50;95343.00;;;5.75;67.46
15444;BME280;7822;48.146;11.576;2022-12-07T09:56:19;95343.09;;;5.74;68.28
15444;BME280;7822;48.146;11.576;2022-12-07T09:58:47;95334.31;;;5.92;67.92
15444;BME280;7822;48.146;11.576;2022-12-07T10:01:17;95332.38;;;5.95;67.41
15444;BME280;7822;48.146;11.576;2022-12-07T10:03:50;95334.22;;;5.93;66.93
15444;BME280;7822;48.146;11.576;2022-12-07T10:06:19;95324.03;;;5.92;67.40
15444;BME280;7822;48.146;11.576;2022-12-07T10:08:48;95323.16;;;5.77;66.94
15444;BME280;7822;48.146;11.576;2022-12-07T10:11:15;95325.09;;;5.74;67.40
15444;BME280;7822;48.146;11.576;2022-12-07T10:13:45;95335.28;;;5.75;67.92
15444;BME280;7822;48.146;11.576;2022-12-07T10:16:37;95328.88;;;5.68;67.69
15444;BME280;7822;48.146;11.576;2022-12-07T10:19:24;95328.50;;;5.74;68.33
15444;BME280;7822;48.146;11.576;2022-12-07T10:22:07;95323.38;;;5.88;67.79
15444;BME280;7822;48.146;11.576;2022-12-07T10:24:36;95321.53;;;5.90;67.08
15444;BME280;7822;48.146;11.576;2022-12-07T10:27:18;95321.81;;;5.86;66.44
15444;BME280;7822;48.146;11.576;2022-12-07T10:29:48;95326.38;;;5.81;66.42
15444;BME280;7822;48.146;11.576;2022-12-07T10:32:31;95320.50;;;5.79;66.64
15444;BME280;7822;48.146;11.576;2022-12-07T10:35:20;95323.28;;;5.90;67.17
15444;BME280;7822;48.146;11.576;2022-12-07T10:37:51;95328.03;;;5.82;65.66
15444;BME280;7822;48.146;11.576;2022-12-07T10:40:31;95320.06;;;5.86;65.94
15444;BME280;7822;48.146;11.576;2022-12-07T10:43:02;95320.72;;;5.90;66.17
15444;BME280;7822;48.146;11.576;2022-12-07T10:45:30;95312.50;;;5.97;65.54
15444;BME280;7822;48.146;11.576;2022-12-07T10:48:11;95313.06;;;6.03;65.01
15444;BME280;7822;48.146;11.576;2022-12-07T10:50:49;95319.50;;;5.95;64.19
15444;BME280;7822;48.146;11.576;2022-12-07T10:53:39;95303.97;;;5.97;64.41
15444;BME280;7822;48.146;11.576;2022-12-07T10:59:23;95291.84;;;5.99;64.28
15444;BME280;7822;48.146;11.576;2022-12-07T11:02:00;95294.31;;;6.01;63.97
15444;BME280;7822;48.146;11.576;2022-12-07T11:04:36;95290.81;;;6.02;63.84
15444;BME280;7822;48.146;11.576;2022-12-07T11:07:10;95285.03;;;5.98;63.17
15444;BME280;7822;48.146;11.576;2022-12-07T11:10:01;95278.75;;;6.02;63.03
15444;BME280;7822;48.146;11.576;2022-12-07T11:12:44;95288.50;;;5.97;62.03
15444;BME280;7822;48.146;11.576;2022-12-07T11:15:17;95282.00;;;6.06;61.50
15444;BME280;7822;48.146;11.576;2022-12-07T11:17:49;95276.56;;;5.96;62.12
15444;BME280;7822;48.146;11.576;2022-12-07T11:20:29;95274.28;;;6.06;61.50
15444;BME280;7822;48.146;11.576;2022-12-07T11:23:06;95275.56;;;5.98;61.66
15444;BME280;7822;48.146;11.576;2022-12-07T11:25:47;95264.59;;;6.09;60.64
15444;BME280;7822;48.146;11.576;2022-12-07T11:28:26;95267.19;;;6.09;59.97
15444;BME280;7822;48.146;11.576;2022-12-07T11:31:05;95266.06;;;6.13;60.19
15444;BME280;7822;48.146;11.576;2022-12-07T11:33:41;95258.72;;;6.07;61.33
15444;BME280;7822;48.146;11.576;2022-12-07T11:36:23;95262.91;;;6.22;60.75
15444;BME280;7822;48.146;11.576;2022-12-07T11:38:55;95258.31;;;6.27;60.83
15444;BME280;7822;48.146;11.576;2022-12-07T11:41:28;95258.75;;;6.34;60.93
15444;BME280;7822;48.146;11.576;2022-12-07T11:44:04;95259.47;;;6.36;60.62
15444;BME280;7822;48.146;11.576;2022-12-07T11:46:44;95263.09;;;6.19;60.96
15444;BME280;7822;48.146;11.576;2022-12-07T11:49:20;95248.69;;;6.17;61.14
15444;BME280;7822;48.146;11.576;2022-12-07T11:51:52;95247.47;;;6.22;61.00
15444;BME280;7822;48.146;11.576;2022-12-07T11:54:25;95245.31;;;6.29;60.65
15444;BME280;7822;48.146;11.576;2022-12-07T11:56:57;95231.97;;;6.10;60.37
15444;BME280;7822;48.146;11.576;2022-12-07T11:59:36;95237.44;;;6.18;61.08
15444;BME280;7822;48.146;11.576;2022-12-07T12:02:12;95240.34;;;6.26;61.02
15444;BME280;7822;48.146;11.576;2022-12-07T12:04:50;95233.16;;;6.31;60.70
15444;BME280;7822;48.146;11.576;2022-12-07T12:07:21;95233.28;;;6.29;60.93
15444;BME280;7822;48.146;11.576;2022-12-07T12:10:17;95227.19;;;6.30;61.02
15444;BME280;7822;48.146;11.576;2022-12-07T12:13:05;95231.53;;;6.30;61.31
15444;BME280;7822;48.146;11.576;2022-12-07T12:16:17;95218.44;;;6.33;60.41
15444;BME280;7822;48.146;11.576;2022-12-07T12:18:56;95215.13;;;6.31;60.46
15444;BME280;7822;48.146;11.576;2022-12-07T12:21:29;95210.22;;;6.28;60.66
15444;BME280;7822;48.146;11.576;2022-12-07T12:24:00;95205.56;;;6.33;61.01
15444;BME280;7822;48.146;11.576;2022-12-07T12:26:33;95208.38;;;6.42;60.15
15444;BME280;7822;48.146;11.576;2022-12-07T12:29:05;95206.34;;;6.47;60.26
15444;BME280;7822;48.146;11.576;2022-12-07T12:31:37;95205.41;;;6.48;60.35
15444;BME280;7822;48.146;11.576;2022-12-07T12:34:30;95203.66;;;6.49;59.98
15444;BME280;7822;48.146;11.576;2022-12-07T12:36:58;95207.38;;;6.45;58.91
15444;BME280;7822;48.146;11.576;2022-12-07T12:39:26;95211.06;;;6.41;59.56
15444;BME280;7822;48.146;11.576;2022-12-07T12:41:57;95202.84;;;6.48;58.63
15444;BME280;7822;48.146;11.576;2022-12-07T12:45:04;95213.53;;;6.42;59.03
15444;BME280;7822;48.146;11.576;2022-12-07T12:47:43;95210.84;;;6.44;58.60
15444;BME280;7822;48.146;11.576;2022-12-07T12:50:21;95210.94;;;6.30;59.75
15444;BME280;7822;48.146;11.576;2022-12-07T12:52:55;95210.34;;;6.12;60.68
15444;BME280;7822;48.146;11.576;2022-12-07T12:58:41;95204.97;;;6.15;61.15
15444;BME280;7822;48.146;11.576;2022-12-07T13:01:44;95202.84;;;6.22;61.68
15444;BME280;7822;48.146;11.576;2022-12-07T13:04:37;95205.41;;;6.22;60.57
15444;BME280;7822;48.146;11.576;2022-12-07T13:07:11;95208.94;;;6.21;60.94
15444;BME280;7822;48.146;11.576;2022-12-07T13:09:43;95201.28;;;6.46;59.60
15444;BME280;7822;48.146;11.576;2022-12-07T13:12:13;95197.66;;;6.36;60.03
15444;BME280;7822;48.146;11.576;2022-12-07T13:14:54;95198.22;;;6.27;60.70
15444;BME280;7822;48.146;11.576;2022-12-07T13:17:57;95195.03;;;6.23;61.94
15444;BME280;7822;48.146;11.576;2022-12-07T13:20:53;95195.06;;;6.09;62.50
15444;BME280;7822;48.146;11.576;2022-12-07T13:23:27;95191.50;;;6.12;61.12
15444;BME280;7822;48.146;11.576;2022-12-07T13:26:21;95192.03;;;6.17;61.16
15444;BME280;7822;48.146;11.576;2022-12-07T13:28:52;95184.00;;;6.60;58.79
15444;BME280;7822;48.146;11.576;2022-12-07T13:31:29;95181.59;;;6.45;60.55
15444;BME280;7822;48.146;11.576;2022-12-07T13:33:58;95181.69;;;6.43;60.40
15444;BME280;7822;48.146;11.576;2022-12-07T13:36:30;95186.84;;;6.43;61.06
15444;BME280;7822;48.146;11.576;2022-12-07T13:39:17;95192.06;;;6.29;61.83
15444;BME280;7822;48.146;11.576;2022-12-07T13:41:50;95192.78;;;6.31;62.03
15444;BME280;7822;48.146;11.576;2022-12-07T13:44:19;95189.97;;;6.22;62.08